createdAt,value
2023-05-14T00:01:16.061Z,9.95
2023-05-14T00:03:44.616Z,8.93
2023-05-14T00:06:13.014Z,9.35
2023-05-14T00:08:41.419Z,11.38
2023-05-14T00:11:11.225Z,9.32
2023-05-14T00:13:39.744Z,9.65
2023-05-14T00:16:08.356Z,8.82
2023-05-14T00:18:36.805Z,9.27
2023-05-14T00:21:05.484Z,8.45
2023-05-14T00:23:33.894Z,9.48
2023-05-14T00:26:02.305Z,10.95
2023-05-14T00:28:32.029Z,10.10
2023-05-14T00:31:00.475Z,9.70
2023-05-14T00:33:29.264Z,8.25
2023-05-14T00:35:57.682Z,8.98
2023-05-14T00:38:27.816Z,9.13
2023-05-14T00:40:56.231Z,10.27
2023-05-14T00:43:25.281Z,9.93
2023-05-14T00:45:56.438Z,10.23
2023-05-14T00:48:25.822Z,9.60
2023-05-14T00:50:54.490Z,10.68
2023-05-14T00:53:23.259Z,11.13
2023-05-14T00:55:52.166Z,9.45
2023-05-14T00:58:20.954Z,8.73
2023-05-14T01:00:49.317Z,7.82
2023-05-14T01:03:19.209Z,8.23
2023-05-14T01:06:01.117Z,8.98
2023-05-14T01:08:41.732Z,9.45
2023-05-14T01:11:21.475Z,8.02
2023-05-14T01:13:59.809Z,8.32
2023-05-14T01:16:30.540Z,9.93
2023-05-14T01:19:02.558Z,8.02
2023-05-14T01:21:43.859Z,7.50
2023-05-14T01:24:12.479Z,8.98
2023-05-14T01:26:40.993Z,8.52
2023-05-14T01:29:19.529Z,9.43
2023-05-14T01:31:51.736Z,10.57
2023-05-14T01:34:24.164Z,9.35
2023-05-14T01:36:54.907Z,10.00
2023-05-14T01:39:26.144Z,10.63
2023-05-14T01:41:55.712Z,12.38
2023-05-14T01:44:24.281Z,12.27
2023-05-14T01:46:52.607Z,9.00
2023-05-14T01:49:21.016Z,8.82
2023-05-14T01:51:49.427Z,8.80
2023-05-14T01:54:19.116Z,10.32
2023-05-14T01:56:47.426Z,9.27
2023-05-14T01:59:16.107Z,9.02
2023-05-14T02:01:44.479Z,8.88
2023-05-14T02:04:12.911Z,9.00
2023-05-14T02:06:42.426Z,9.50
2023-05-14T02:09:11.317Z,8.95
2023-05-14T02:11:41.096Z,8.80
2023-05-14T02:14:09.413Z,10.48
2023-05-14T02:16:39.025Z,9.18
2023-05-14T02:19:07.390Z,9.00
2023-05-14T02:21:35.958Z,8.40
2023-05-14T02:24:04.524Z,8.50
2023-05-14T02:26:32.859Z,8.82
2023-05-14T02:29:02.678Z,10.18
2023-05-14T02:31:31.166Z,9.73
2023-05-14T02:33:59.650Z,9.55
2023-05-14T02:36:28.008Z,10.65
2023-05-14T02:38:56.294Z,8.82
2023-05-14T02:41:24.894Z,8.18
2023-05-14T02:43:54.209Z,9.18
2023-05-14T02:46:24.162Z,8.27
2023-05-14T02:48:53.744Z,8.98
2023-05-14T02:51:22.061Z,8.07
2023-05-14T02:53:50.522Z,8.02
2023-05-14T02:56:18.925Z,8.05
2023-05-14T02:58:47.459Z,8.10
2023-05-14T03:01:16.050Z,7.55
2023-05-14T03:03:46.455Z,8.05
2023-05-14T03:06:15.068Z,8.48
2023-05-14T03:08:43.454Z,7.95
2023-05-14T03:11:11.900Z,7.40
2023-05-14T03:13:40.272Z,8.27
2023-05-14T03:16:09.355Z,8.07
2023-05-14T03:18:37.973Z,8.50
2023-05-14T03:21:09.109Z,7.65
2023-05-14T03:23:37.489Z,7.88
2023-05-14T03:26:06.438Z,7.20
2023-05-14T03:28:34.749Z,7.13
2023-05-14T03:31:04.862Z,8.32
2023-05-14T03:33:33.875Z,8.48
2023-05-14T03:36:02.223Z,7.72
2023-05-14T03:38:31.962Z,8.13
2023-05-14T03:41:00.277Z,8.00
2023-05-14T03:43:28.770Z,8.25
2023-05-14T03:45:57.135Z,13.07
2023-05-14T03:48:25.736Z,9.02
2023-05-14T03:50:54.139Z,8.93
2023-05-14T03:53:22.649Z,7.72
2023-05-14T03:55:52.643Z,7.60
2023-05-14T03:58:21.091Z,8.38
2023-05-14T04:00:49.661Z,7.40
2023-05-14T04:03:18.156Z,6.38
2023-05-14T04:05:46.696Z,8.32
2023-05-14T04:08:15.020Z,7.15
2023-05-14T04:10:44.500Z,7.55
2023-05-14T04:13:14.278Z,8.20
2023-05-14T04:15:42.711Z,7.63
2023-05-14T04:18:11.497Z,6.95
2023-05-14T04:20:40.589Z,7.72
2023-05-14T04:23:08.936Z,6.75
2023-05-14T04:25:37.335Z,8.18
2023-05-14T04:28:06.147Z,7.80
2023-05-14T04:30:35.851Z,8.75
2023-05-14T04:33:06.558Z,7.57
2023-05-14T04:35:34.942Z,8.10
2023-05-14T04:38:03.275Z,7.97
2023-05-14T04:40:32.051Z,8.35
2023-05-14T04:43:00.431Z,7.25
2023-05-14T04:45:28.860Z,8.57
2023-05-14T04:47:58.696Z,7.13
2023-05-14T04:50:27.103Z,6.82
2023-05-14T04:52:55.956Z,7.88
2023-05-14T04:55:24.655Z,7.45
2023-05-14T04:57:53.056Z,6.82
2023-05-14T05:00:22.405Z,7.22
2023-05-14T05:02:51.233Z,5.75
2023-05-14T05:05:21.588Z,6.93
2023-05-14T05:07:49.916Z,7.10
2023-05-14T05:10:18.402Z,7.50
2023-05-14T05:12:46.899Z,6.90
2023-05-14T05:15:15.486Z,5.82
2023-05-14T05:17:44.079Z,6.70
2023-05-14T05:20:14.077Z,5.97
2023-05-14T05:22:44.155Z,6.82
2023-05-14T05:25:13.028Z,6.40
2023-05-14T05:27:41.439Z,7.25
2023-05-14T05:30:11.327Z,7.50
2023-05-14T05:32:39.806Z,6.25
2023-05-14T05:35:09.268Z,5.45
2023-05-14T05:37:37.682Z,5.68
2023-05-14T05:40:10.360Z,5.78
2023-05-14T05:42:38.724Z,5.25
2023-05-14T05:45:09.246Z,6.13
2023-05-14T05:47:37.680Z,5.20
2023-05-14T05:50:07.940Z,5.68
2023-05-14T05:52:36.426Z,6.05
2023-05-14T05:55:09.169Z,5.22
2023-05-14T05:57:37.577Z,8.23
2023-05-14T06:00:13.239Z,6.57
2023-05-14T06:02:42.661Z,5.15
2023-05-14T06:05:12.364Z,5.03
2023-05-14T06:07:40.982Z,5.60
2023-05-14T06:10:12.698Z,6.38
2023-05-14T06:12:41.109Z,5.43
2023-05-14T06:15:10.606Z,5.80
2023-05-14T06:17:39.112Z,6.03
2023-05-14T06:20:10.001Z,5.60
2023-05-14T06:22:38.817Z,5.20
2023-05-14T06:25:08.520Z,5.22
2023-05-14T06:27:38.272Z,6.05
2023-05-14T06:30:08.279Z,10.80
2023-05-14T06:32:36.782Z,4.53
2023-05-14T06:35:06.345Z,5.90
2023-05-14T06:37:34.698Z,5.07
2023-05-14T06:40:03.727Z,5.78
2023-05-14T06:42:32.243Z,4.78
2023-05-14T06:45:02.470Z,5.03
2023-05-14T06:47:30.886Z,5.28
2023-05-14T06:50:01.160Z,5.90
2023-05-14T06:52:29.555Z,6.88
2023-05-14T06:54:57.913Z,5.88
2023-05-14T06:57:26.644Z,6.65
2023-05-14T06:59:55.367Z,4.80
2023-05-14T07:02:25.143Z,6.05
2023-05-14T07:04:53.507Z,5.18
2023-05-14T07:07:21.894Z,5.38
2023-05-14T07:09:50.229Z,5.55
2023-05-14T07:12:18.542Z,5.10
2023-05-14T07:14:46.876Z,5.82
2023-05-14T07:17:15.330Z,5.93
2023-05-14T07:19:45.053Z,5.63
2023-05-14T07:22:13.431Z,6.85
2023-05-14T07:24:41.740Z,6.80
2023-05-14T07:27:10.235Z,5.70
2023-05-14T07:29:38.612Z,5.68
2023-05-14T07:32:07.369Z,5.38
2023-05-14T07:34:35.899Z,6.38
2023-05-14T07:37:06.120Z,6.55
2023-05-14T07:39:35.571Z,6.30
2023-05-14T07:42:04.387Z,6.13
2023-05-14T07:44:32.800Z,6.15
2023-05-14T07:47:01.266Z,5.63
2023-05-14T07:49:29.588Z,5.63
2023-05-14T07:51:57.914Z,6.05
2023-05-14T07:54:27.609Z,6.75
2023-05-14T07:56:55.988Z,6.45
2023-05-14T07:59:24.417Z,5.07
2023-05-14T08:01:55.676Z,4.88
2023-05-14T08:04:24.433Z,4.40
2023-05-14T08:06:53.037Z,4.63
2023-05-14T08:09:21.415Z,6.20
2023-05-14T08:11:51.183Z,6.60
2023-05-14T08:14:19.565Z,5.10
2023-05-14T08:16:47.975Z,5.57
2023-05-14T08:19:18.108Z,5.00
2023-05-14T08:21:46.465Z,5.47
2023-05-14T08:24:15.121Z,5.22
2023-05-14T08:26:43.507Z,5.78
2023-05-14T08:29:16.110Z,6.50
2023-05-14T08:31:45.054Z,5.07
2023-05-14T08:34:13.468Z,5.40
2023-05-14T08:36:41.914Z,5.63
2023-05-14T08:39:10.347Z,5.13
2023-05-14T08:41:38.715Z,5.93
2023-05-14T08:44:13.533Z,5.70
2023-05-14T08:46:43.677Z,7.22
2023-05-14T08:49:23.117Z,5.57
2023-05-14T08:51:51.614Z,5.82
2023-05-14T08:54:22.604Z,6.45
2023-05-14T08:56:53.407Z,6.68
2023-05-14T08:59:21.948Z,4.85
2023-05-14T09:01:55.793Z,6.88
2023-05-14T09:04:26.337Z,5.38
2023-05-14T09:06:56.278Z,5.38
2023-05-14T09:09:25.250Z,5.68
2023-05-14T09:11:54.780Z,6.00
2023-05-14T09:14:24.465Z,6.10
2023-05-14T09:16:54.800Z,7.10
2023-05-14T09:19:24.575Z,13.18
2023-05-14T09:21:53.233Z,6.15
2023-05-14T09:24:22.483Z,5.75
2023-05-14T09:26:53.520Z,6.68
2023-05-14T09:29:22.539Z,6.68
2023-05-14T09:31:54.253Z,5.70
2023-05-14T09:34:27.367Z,7.25
2023-05-14T09:37:01.334Z,5.97
2023-05-14T09:39:30.779Z,6.07
2023-05-14T09:41:59.658Z,6.72
2023-05-14T09:44:28.550Z,6.00
2023-05-14T09:46:58.402Z,6.38
2023-05-14T09:49:26.842Z,5.32
2023-05-14T09:51:57.332Z,6.45
2023-05-14T09:54:27.932Z,6.57
2023-05-14T09:56:56.343Z,5.25
2023-05-14T09:59:24.768Z,5.88
2023-05-14T10:01:54.376Z,6.82
2023-05-14T10:04:25.237Z,7.22
2023-05-14T10:06:56.362Z,6.72
2023-05-14T10:09:29.034Z,5.45
2023-05-14T10:12:02.034Z,5.45
2023-05-14T10:14:40.027Z,6.80
2023-05-14T10:17:18.243Z,6.57
2023-05-14T10:19:53.798Z,7.15
2023-05-14T10:22:35.887Z,6.78
2023-05-14T10:25:06.088Z,6.35
2023-05-14T10:27:34.744Z,6.25
2023-05-14T10:30:12.763Z,6.70
2023-05-14T10:32:44.361Z,7.20
2023-05-14T10:35:25.515Z,8.02
2023-05-14T10:37:53.966Z,6.38
2023-05-14T10:40:26.144Z,6.40
2023-05-14T10:42:59.856Z,5.90
2023-05-14T10:45:30.365Z,7.75
2023-05-14T10:47:59.437Z,7.30
2023-05-14T10:50:30.762Z,7.55
2023-05-14T10:52:59.390Z,6.40
2023-05-14T10:55:28.275Z,8.18
2023-05-14T10:58:01.468Z,6.72
2023-05-14T11:00:29.861Z,6.75
2023-05-14T11:02:59.001Z,7.32
2023-05-14T11:05:28.812Z,8.45
2023-05-14T11:07:59.388Z,7.05
2023-05-14T11:10:30.138Z,7.97
2023-05-14T11:12:59.143Z,7.03
2023-05-14T11:15:28.518Z,6.93
2023-05-14T11:17:57.007Z,6.72
2023-05-14T11:20:25.925Z,6.88
2023-05-14T11:22:55.838Z,7.15
2023-05-14T11:25:25.949Z,7.68
2023-05-14T11:27:58.385Z,8.30
2023-05-14T11:30:26.822Z,7.47
2023-05-14T11:32:55.272Z,7.93
2023-05-14T11:35:23.876Z,8.50
2023-05-14T11:37:53.519Z,8.27
2023-05-14T11:40:23.820Z,7.65
2023-05-14T11:42:53.390Z,8.05
2023-05-14T11:45:27.382Z,8.65
2023-05-14T11:47:55.837Z,8.00
2023-05-14T11:50:24.654Z,8.25
2023-05-14T11:52:58.503Z,8.00
2023-05-14T11:55:28.317Z,8.57
2023-05-14T11:57:56.736Z,8.23
2023-05-14T12:00:25.391Z,8.13
2023-05-14T12:02:54.234Z,7.15
2023-05-14T12:05:23.033Z,8.45
2023-05-14T12:07:52.089Z,8.60
2023-05-14T12:10:20.499Z,7.05
2023-05-14T12:12:50.743Z,7.82
2023-05-14T12:15:19.191Z,6.20
2023-05-14T12:17:52.238Z,7.07
2023-05-14T12:20:20.836Z,6.75
2023-05-14T12:22:49.270Z,6.55
2023-05-14T12:25:17.844Z,7.40
2023-05-14T12:27:46.703Z,7.18
2023-05-14T12:30:21.815Z,6.43
2023-05-14T12:32:53.036Z,5.45
2023-05-14T12:35:23.392Z,6.80
2023-05-14T12:37:52.077Z,6.05
2023-05-14T12:40:20.663Z,6.50
2023-05-14T12:42:49.064Z,6.72
2023-05-14T12:45:19.056Z,6.97
2023-05-14T12:47:47.658Z,6.00
2023-05-14T12:50:16.468Z,6.43
2023-05-14T12:52:44.863Z,7.00
2023-05-14T12:55:13.243Z,6.80
2023-05-14T12:57:41.883Z,6.35
2023-05-14T13:00:14.071Z,6.22
2023-05-14T13:02:44.225Z,7.25
2023-05-14T13:05:12.997Z,5.72
2023-05-14T13:07:41.693Z,6.90
2023-05-14T13:10:11.668Z,6.18
2023-05-14T13:12:40.491Z,5.50
2023-05-14T13:15:10.808Z,6.00
2023-05-14T13:17:40.342Z,5.57
2023-05-14T13:20:13.396Z,4.65
2023-05-14T13:22:41.774Z,6.32
2023-05-14T13:25:11.389Z,4.90
2023-05-14T13:27:40.069Z,6.18
2023-05-14T13:30:10.057Z,6.13
2023-05-14T13:32:39.642Z,6.65
2023-05-14T13:35:12.440Z,5.93
2023-05-14T13:37:41.014Z,6.43
2023-05-14T13:40:11.560Z,6.65
2023-05-14T13:42:40.807Z,5.85
2023-05-14T13:45:11.632Z,6.40
2023-05-14T13:47:40.470Z,6.45
2023-05-14T13:50:10.142Z,7.10
2023-05-14T13:52:40.158Z,6.15
2023-05-14T13:55:10.082Z,6.82
2023-05-14T13:57:39.827Z,5.80
2023-05-14T14:00:11.156Z,10.90
2023-05-14T14:02:39.530Z,5.80
2023-05-14T14:05:09.305Z,6.45
2023-05-14T14:07:40.626Z,6.10
2023-05-14T14:10:11.158Z,5.47
2023-05-14T14:12:39.524Z,5.47
2023-05-14T14:15:09.641Z,5.93
2023-05-14T14:17:39.068Z,6.25
2023-05-14T14:20:11.183Z,6.72
2023-05-14T14:22:41.583Z,6.10
2023-05-14T14:25:12.321Z,7.90
2023-05-14T14:27:41.029Z,6.32
2023-05-14T14:30:15.716Z,6.68
2023-05-14T14:32:45.680Z,6.03
2023-05-14T14:35:15.267Z,6.40
2023-05-14T14:37:49.248Z,5.72
2023-05-14T14:40:18.457Z,6.07
2023-05-14T14:42:47.092Z,6.80
2023-05-14T14:45:15.541Z,5.72
2023-05-14T14:47:47.012Z,6.57
2023-05-14T14:50:15.832Z,6.43
2023-05-14T14:52:48.002Z,5.80
2023-05-14T14:55:16.446Z,6.07
2023-05-14T14:57:44.859Z,6.60
2023-05-14T15:00:15.810Z,5.88
2023-05-14T15:02:45.100Z,6.25
2023-05-14T15:05:13.668Z,7.57
2023-05-14T15:07:41.994Z,5.88
2023-05-14T15:10:12.466Z,5.35
2023-05-14T15:12:40.978Z,6.15
2023-05-14T15:15:11.537Z,6.10
2023-05-14T15:17:40.089Z,6.82
2023-05-14T15:20:11.157Z,5.88
2023-05-14T15:22:39.634Z,6.50
2023-05-14T15:25:09.032Z,6.10
2023-05-14T15:27:38.804Z,6.10
2023-05-14T15:30:09.500Z,5.43
2023-05-14T15:32:38.213Z,5.68
2023-05-14T15:35:07.696Z,6.40
2023-05-14T15:37:40.304Z,6.78
2023-05-14T15:40:11.033Z,6.88
2023-05-14T15:42:44.254Z,6.00
2023-05-14T15:45:14.604Z,6.85
2023-05-14T15:47:44.304Z,6.13
2023-05-14T15:50:13.465Z,6.57
2023-05-14T15:52:41.904Z,5.72
2023-05-14T15:55:11.696Z,6.40
2023-05-14T15:57:41.468Z,6.32
2023-05-14T16:00:11.658Z,5.90
2023-05-14T16:02:40.620Z,6.65
2023-05-14T16:05:10.036Z,6.43
2023-05-14T16:07:38.532Z,6.07
2023-05-14T16:10:08.625Z,6.47
2023-05-14T16:12:36.926Z,5.63
2023-05-14T16:15:09.324Z,6.28
2023-05-14T16:17:37.856Z,7.35
2023-05-14T16:20:07.564Z,6.70
2023-05-14T16:22:36.568Z,7.60
2023-05-14T16:25:06.039Z,6.25
2023-05-14T16:27:35.698Z,6.53
2023-05-14T16:30:04.617Z,6.93
2023-05-14T16:32:34.439Z,7.05
2023-05-14T16:35:03.008Z,6.32
2023-05-14T16:37:32.354Z,6.63
2023-05-14T16:40:00.740Z,7.70
2023-05-14T16:42:29.328Z,6.65
2023-05-14T16:44:57.775Z,7.32
2023-05-14T16:47:26.415Z,5.10
2023-05-14T16:49:56.484Z,6.25
2023-05-14T16:52:25.111Z,5.38
2023-05-14T16:54:53.692Z,6.90
2023-05-14T16:57:22.254Z,5.82
2023-05-14T16:59:50.696Z,5.15
2023-05-14T17:02:19.154Z,6.60
2023-05-14T17:04:47.947Z,5.95
2023-05-14T17:07:17.777Z,6.60
2023-05-14T17:09:47.690Z,6.82
2023-05-14T17:12:16.153Z,8.40
2023-05-14T17:14:44.579Z,7.90
2023-05-14T17:17:12.938Z,6.18
2023-05-14T17:19:41.376Z,6.50
2023-05-14T17:22:09.812Z,6.13
2023-05-14T17:24:40.072Z,5.60
2023-05-14T17:27:08.622Z,6.03
2023-05-14T17:29:37.700Z,7.10
2023-05-14T17:32:07.199Z,5.65
2023-05-14T17:37:04.334Z,6.07
2023-05-14T17:39:32.703Z,7.28
2023-05-14T17:42:03.696Z,6.85
2023-05-14T17:44:32.046Z,6.97
2023-05-14T17:47:00.885Z,5.57
2023-05-14T17:49:29.404Z,7.20
2023-05-14T17:51:57.830Z,5.30
2023-05-14T17:54:26.217Z,6.43
2023-05-14T17:56:55.500Z,7.32
2023-05-14T17:59:25.600Z,6.35
2023-05-14T18:01:54.578Z,7.15
2023-05-14T18:04:23.203Z,7.05
2023-05-14T18:06:52.044Z,6.97
2023-05-14T18:09:20.812Z,7.20
2023-05-14T18:11:49.290Z,6.88
2023-05-14T18:14:18.644Z,6.70
2023-05-14T18:16:48.564Z,7.60
2023-05-14T18:19:17.371Z,7.38
2023-05-14T18:21:48.582Z,6.60
2023-05-14T18:24:18.444Z,8.18
2023-05-14T18:26:46.898Z,11.65
2023-05-14T18:29:15.373Z,7.57
2023-05-14T18:31:43.981Z,8.25
2023-05-14T18:34:15.590Z,6.38
2023-05-14T18:36:44.459Z,7.47
2023-05-14T18:39:12.946Z,6.68
2023-05-14T18:41:41.319Z,6.60
2023-05-14T18:44:10.669Z,6.28
2023-05-14T18:46:39.633Z,10.43
2023-05-14T18:49:08.366Z,7.25
2023-05-14T18:51:39.854Z,6.95
2023-05-14T18:54:09.667Z,6.38
2023-05-14T18:56:41.279Z,5.90
2023-05-14T18:59:10.364Z,5.57
2023-05-14T19:01:38.764Z,5.93
2023-05-14T19:04:08.220Z,5.85
2023-05-14T19:06:40.247Z,6.03
2023-05-14T19:09:09.664Z,6.72
2023-05-14T19:11:38.895Z,6.85
2023-05-14T19:14:07.552Z,6.45
2023-05-14T19:16:36.417Z,6.30
2023-05-14T19:19:04.914Z,6.15
2023-05-14T19:21:34.012Z,6.05
2023-05-14T19:24:03.860Z,6.22
2023-05-14T19:26:32.722Z,6.38
2023-05-14T19:29:02.362Z,8.52
2023-05-14T19:31:33.093Z,5.55
2023-05-14T19:34:01.639Z,5.18
2023-05-14T19:36:31.625Z,6.30
2023-05-14T19:39:00.871Z,5.25
2023-05-14T19:41:31.074Z,5.65
2023-05-14T19:43:59.537Z,6.68
2023-05-14T19:46:28.049Z,5.55
2023-05-14T19:48:56.556Z,5.88
2023-05-14T19:51:25.745Z,6.68
2023-05-14T19:53:54.219Z,6.00
2023-05-14T19:56:24.248Z,6.68
2023-05-14T19:58:55.108Z,5.93
2023-05-14T20:01:23.620Z,5.90
2023-05-14T20:03:53.900Z,5.28
2023-05-14T20:06:22.529Z,6.22
2023-05-14T20:08:51.582Z,5.70
2023-05-14T20:11:20.260Z,6.68
2023-05-14T20:13:48.952Z,4.85
2023-05-14T20:16:19.585Z,4.68
2023-05-14T20:18:48.446Z,5.43
2023-05-14T20:21:16.947Z,5.20
2023-05-14T20:23:45.565Z,5.20
2023-05-14T20:26:13.942Z,5.72
2023-05-14T20:28:43.451Z,5.30
2023-05-14T20:31:12.697Z,5.60
2023-05-14T20:33:42.609Z,5.22
2023-05-14T20:36:11.240Z,5.60
2023-05-14T20:38:40.808Z,4.88
2023-05-14T20:41:09.263Z,5.57
2023-05-14T20:43:37.721Z,5.47
2023-05-14T20:46:07.467Z,4.75
2023-05-14T20:48:35.999Z,5.20
2023-05-14T20:51:06.564Z,6.07
2023-05-14T20:53:35.508Z,5.22
2023-05-14T20:56:03.971Z,5.90
2023-05-14T20:58:32.379Z,5.32
2023-05-14T21:01:00.784Z,6.10
2023-05-14T21:03:29.313Z,5.38
2023-05-14T21:05:58.002Z,5.15
2023-05-14T21:08:28.455Z,7.47
2023-05-14T21:10:56.825Z,5.88
2023-05-14T21:13:25.328Z,6.65
2023-05-14T21:15:53.769Z,6.00
2023-05-14T21:18:22.179Z,5.40
2023-05-14T21:20:50.958Z,5.90
2023-05-14T21:23:19.900Z,5.88
2023-05-14T21:25:49.700Z,5.25
2023-05-14T21:28:18.059Z,5.35
2023-05-14T21:30:46.413Z,5.63
2023-05-14T21:33:15.648Z,5.25
2023-05-14T21:35:44.167Z,4.90
2023-05-14T21:38:12.898Z,5.80
2023-05-14T21:40:41.325Z,4.68
2023-05-14T21:43:11.031Z,5.47
2023-05-14T21:45:39.810Z,6.30
2023-05-14T21:48:08.294Z,7.30
2023-05-14T21:50:37.339Z,6.55
2023-05-14T21:53:05.757Z,7.70
2023-05-14T21:55:34.300Z,6.93
2023-05-14T21:58:03.029Z,7.25
2023-05-14T22:00:32.777Z,8.45
2023-05-14T22:03:01.198Z,7.85
2023-05-14T22:05:30.226Z,8.50
2023-05-14T22:07:58.592Z,7.22
2023-05-14T22:10:27.040Z,7.68
2023-05-14T22:12:55.424Z,7.78
2023-05-14T22:15:23.951Z,7.40
2023-05-14T22:17:53.969Z,7.28
2023-05-14T22:20:22.648Z,7.22
2023-05-14T22:22:51.586Z,6.55
2023-05-14T22:25:20.203Z,7.15
2023-05-14T22:27:48.576Z,7.00
2023-05-14T22:30:17.085Z,7.32
2023-05-14T22:32:45.515Z,7.50
2023-05-14T22:35:15.531Z,7.30
2023-05-14T22:37:43.944Z,6.82
2023-05-14T22:40:14.647Z,7.32
2023-05-14T22:42:43.091Z,7.63
2023-05-14T22:45:12.308Z,5.70
2023-05-14T22:47:40.760Z,6.20
2023-05-14T22:50:11.642Z,8.20
2023-05-14T22:52:42.066Z,7.70
2023-05-14T22:55:11.497Z,7.07
2023-05-14T22:57:40.129Z,6.60
2023-05-14T23:00:10.394Z,8.00
2023-05-14T23:02:39.392Z,6.93
2023-05-14T23:05:09.329Z,8.07
2023-05-14T23:07:37.758Z,8.95
2023-05-14T23:10:08.768Z,7.68
2023-05-14T23:12:37.135Z,6.10
2023-05-14T23:15:06.600Z,6.95
2023-05-14T23:17:35.050Z,4.97
2023-05-14T23:20:06.045Z,5.53
2023-05-14T23:22:34.433Z,5.55
2023-05-14T23:25:02.793Z,4.97
2023-05-14T23:27:32.452Z,5.97
2023-05-14T23:30:00.736Z,5.22
2023-05-14T23:32:29.190Z,5.20
2023-05-14T23:34:57.674Z,5.93
2023-05-14T23:37:26.330Z,5.30
2023-05-14T23:39:54.680Z,4.85
2023-05-14T23:42:23.034Z,4.35
2023-05-14T23:44:52.736Z,4.07
2023-05-14T23:47:21.117Z,4.50
2023-05-14T23:49:49.451Z,4.43
2023-05-14T23:52:17.800Z,5.07
2023-05-14T23:54:46.097Z,3.97
2023-05-14T23:57:15.323Z,4.00
2023-05-14T23:59:43.904Z,3.22
